sensor_id;sensor_type;location;lat;lon;timestamp;pressure;altitude;pressure_sealevel;temperature;humidity
29733;BME280;16643;43.158;25.302;2023-06-14T00:00:19;97680.31;;;19.08;100.00
29733;BME280;16643;43.158;25.302;2023-06-14T00:02:45;97667.53;;;18.91;100.00
29733;BME280;16643;43.158;25.302;2023-06-14T00:05:10;97657.84;;;18.92;100.00
29733;BME280;16643;43.158;25.302;2023-06-14T00:07:41;97742.16;;;19.41;100.00
29733;BME280;16643;43.158;25.302;2023-06-14T00:10:10;97744.78;;;19.41;100.00
29733;BME280;16643;43.158;25.302;2023-06-14T00:12:37;97720.16;;;19.29;100.00
29733;BME280;16643;43.158;25.302;2023-06-14T00:15:04;97729.50;;;19.33;100.00
29733;BME280;16643;43.158;25.302;2023-06-14T00:17:31;97728.44;;;19.36;100.00
29733;BME280;16643;43.158;25.302;2023-06-14T00:19:58;97745.50;;;19.43;100.00
29733;BME280;16643;43.158;25.302;2023-06-14T00:22:24;97723.16;;;19.36;100.00
29733;BME280;16643;43.158;25.302;2023-06-14T00:24:51;97734.34;;;19.39;100.00
29733;BME280;16643;43.158;25.302;2023-06-14T00:27:16;97705.81;;;19.20;100.00
29733;BME280;16643;43.158;25.302;2023-06-14T00:29:42;97740.78;;;19.35;100.00
29733;BME280;16643;43.158;25.302;2023-06-14T00:32:08;97679.13;;;18.89;100.00
29733;BME280;16643;43.158;25.302;2023-06-14T00:34:34;97724.03;;;19.23;100.00
29733;BME280;16643;43.158;25.302;2023-06-14T00:37:00;97731.28;;;19.33;100.00
29733;BME280;16643;43.158;25.302;2023-06-14T00:39:25;97695.44;;;19.06;100.00
29733;BME280;16643;43.158;25.302;2023-06-14T00:41:51;97720.47;;;19.25;100.00
29733;BME280;16643;43.158;25.302;2023-06-14T00:44:17;97723.88;;;19.14;100.00
29733;BME280;16643;43.158;25.302;2023-06-14T00:46:44;97676.28;;;18.79;100.00
29733;BME280;16643;43.158;25.302;2023-06-14T00:49:10;97725.03;;;19.10;100.00
29733;BME280;16643;43.158;25.302;2023-06-14T00:51:37;97700.72;;;18.94;100.00
29733;BME280;16643;43.158;25.302;2023-06-14T00:54:03;97661.88;;;18.72;100.00
29733;BME280;16643;43.158;25.302;2023-06-14T00:56:28;97693.31;;;18.99;100.00
29733;BME280;16643;43.158;25.302;2023-06-14T00:58:56;97683.84;;;18.96;100.00
29733;BME280;16643;43.158;25.302;2023-06-14T01:01:26;97712.38;;;19.15;100.00
29733;BME280;16643;43.158;25.302;2023-06-14T01:03:53;97666.06;;;18.87;100.00
29733;BME280;16643;43.158;25.302;2023-06-14T01:12:07;97685.22;;;19.02;100.00
29733;BME280;16643;43.158;25.302;2023-06-14T01:14:38;97705.31;;;19.15;100.00
29733;BME280;16643;43.158;25.302;2023-06-14T01:17:05;97675.22;;;18.94;100.00
29733;BME280;16643;43.158;25.302;2023-06-14T01:19:33;97687.94;;;19.00;100.00
29733;BME280;16643;43.158;25.302;2023-06-14T01:22:01;97663.53;;;18.85;100.00
29733;BME280;16643;43.158;25.302;2023-06-14T01:24:27;97652.72;;;18.65;100.00
29733;BME280;16643;43.158;25.302;2023-06-14T01:26:57;97655.34;;;18.65;100.00
29733;BME280;16643;43.158;25.302;2023-06-14T01:29:25;97678.81;;;18.80;100.00
29733;BME280;16643;43.158;25.302;2023-06-14T01:31:55;97704.63;;;18.88;100.00
29733;BME280;16643;43.158;25.302;2023-06-14T01:34:21;97662.94;;;18.69;100.00
29733;BME280;16643;43.158;25.302;2023-06-14T01:36:48;97665.88;;;18.77;100.00
29733;BME280;16643;43.158;25.302;2023-06-14T01:39:15;97683.03;;;18.83;100.00
29733;BME280;16643;43.158;25.302;2023-06-14T01:41:42;97635.38;;;18.62;100.00
29733;BME280;16643;43.158;25.302;2023-06-14T01:44:09;97720.13;;;18.93;100.00
29733;BME280;16643;43.158;25.302;2023-06-14T01:46:36;97656.38;;;18.75;100.00
29733;BME280;16643;43.158;25.302;2023-06-14T01:49:02;97639.53;;;18.65;100.00
29733;BME280;16643;43.158;25.302;2023-06-14T01:51:28;97670.41;;;18.75;100.00
29733;BME280;16643;43.158;25.302;2023-06-14T01:53:53;97674.00;;;18.62;100.00
29733;BME280;16643;43.158;25.302;2023-06-14T01:56:20;97697.81;;;18.73;100.00
29733;BME280;16643;43.158;25.302;2023-06-14T01:58:47;97655.22;;;18.54;100.00
29733;BME280;16643;43.158;25.302;2023-06-14T02:01:13;97628.31;;;18.37;100.00
29733;BME280;16643;43.158;25.302;2023-06-14T02:03:41;97688.81;;;18.75;100.00
29733;BME280;16643;43.158;25.302;2023-06-14T02:06:09;97696.41;;;18.80;100.00
29733;BME280;16643;43.158;25.302;2023-06-14T02:08:35;97710.84;;;18.87;100.00
29733;BME280;16643;43.158;25.302;2023-06-14T02:11:01;97714.53;;;18.84;100.00
29733;BME280;16643;43.158;25.302;2023-06-14T02:13:27;97706.13;;;18.79;100.00
29733;BME280;16643;43.158;25.302;2023-06-14T02:15:52;97691.25;;;18.66;100.00
29733;BME280;16643;43.158;25.302;2023-06-14T02:18:20;97723.41;;;18.71;100.00
29733;BME280;16643;43.158;25.302;2023-06-14T02:20:47;97712.66;;;18.61;100.00
29733;BME280;16643;43.158;25.302;2023-06-14T02:23:13;97690.72;;;18.48;100.00
29733;BME280;16643;43.158;25.302;2023-06-14T02:25:38;97725.09;;;18.72;100.00
29733;BME280;16643;43.158;25.302;2023-06-14T02:28:05;97715.91;;;18.65;100.00
29733;BME280;16643;43.158;25.302;2023-06-14T02:30:31;97677.66;;;18.21;100.00
29733;BME280;16643;43.158;25.302;2023-06-14T02:32:57;97634.69;;;18.08;100.00
29733;BME280;16643;43.158;25.302;2023-06-14T02:35:23;97704.19;;;18.56;100.00
29733;BME280;16643;43.158;25.302;2023-06-14T02:37:52;97730.88;;;18.64;100.00
29733;BME280;16643;43.158;25.302;2023-06-14T02:40:19;97700.63;;;18.44;100.00
29733;BME280;16643;43.158;25.302;2023-06-14T02:42:44;97703.16;;;18.46;100.00
29733;BME280;16643;43.158;25.302;2023-06-14T02:45:10;97709.75;;;18.51;100.00
29733;BME280;16643;43.158;25.302;2023-06-14T02:47:35;97661.22;;;18.30;100.00
29733;BME280;16643;43.158;25.302;2023-06-14T02:50:02;97708.00;;;18.39;100.00
29733;BME280;16643;43.158;25.302;2023-06-14T02:52:28;97724.34;;;18.70;100.00
29733;BME280;16643;43.158;25.302;2023-06-14T02:54:54;97737.72;;;18.67;100.00
29733;BME280;16643;43.158;25.302;2023-06-14T02:57:21;97688.09;;;18.35;100.00
29733;BME280;16643;43.158;25.302;2023-06-14T02:59:50;97717.06;;;18.48;100.00
29733;BME280;16643;43.158;25.302;2023-06-14T03:02:15;97682.28;;;18.30;100.00
29733;BME280;16643;43.158;25.302;2023-06-14T03:04:41;97757.63;;;18.58;100.00
29733;BME280;16643;43.158;25.302;2023-06-14T03:07:09;97673.97;;;18.24;100.00
29733;BME280;16643;43.158;25.302;2023-06-14T03:09:36;97704.72;;;18.36;100.00
29733;BME280;16643;43.158;25.302;2023-06-14T03:12:03;97753.00;;;18.62;100.00
29733;BME280;16643;43.158;25.302;2023-06-14T03:14:30;97729.16;;;18.38;100.00
29733;BME280;16643;43.158;25.302;2023-06-14T03:16:56;97744.22;;;18.48;100.00
29733;BME280;16643;43.158;25.302;2023-06-14T03:19:23;97738.50;;;18.42;100.00
29733;BME280;16643;43.158;25.302;2023-06-14T03:21:48;97737.91;;;18.38;100.00
29733;BME280;16643;43.158;25.302;2023-06-14T03:24:15;97758.00;;;18.52;100.00
29733;BME280;16643;43.158;25.302;2023-06-14T03:26:43;97735.66;;;18.32;100.00
29733;BME280;16643;43.158;25.302;2023-06-14T03:29:09;97766.03;;;18.50;100.00
29733;BME280;16643;43.158;25.302;2023-06-14T03:31:35;97765.19;;;18.50;100.00
29733;BME280;16643;43.158;25.302;2023-06-14T03:34:01;97768.22;;;18.44;100.00
29733;BME280;16643;43.158;25.302;2023-06-14T03:36:27;97777.25;;;18.27;100.00
29733;BME280;16643;43.158;25.302;2023-06-14T03:38:53;97787.66;;;18.29;100.00
29733;BME280;16643;43.158;25.302;2023-06-14T03:41:20;97763.03;;;18.17;100.00
29733;BME280;16643;43.158;25.302;2023-06-14T03:43:45;97784.22;;;18.28;100.00
29733;BME280;16643;43.158;25.302;2023-06-14T03:46:11;97791.25;;;18.28;100.00
29733;BME280;16643;43.158;25.302;2023-06-14T03:48:37;97745.63;;;18.02;100.00
29733;BME280;16643;43.158;25.302;2023-06-14T03:51:04;97764.25;;;18.11;100.00
29733;BME280;16643;43.158;25.302;2023-06-14T03:53:30;97785.16;;;18.27;100.00
29733;BME280;16643;43.158;25.302;2023-06-14T03:55:56;97791.31;;;18.13;100.00
29733;BME280;16643;43.158;25.302;2023-06-14T03:58:22;97727.69;;;17.82;100.00
29733;BME280;16643;43.158;25.302;2023-06-14T04:00:48;97792.50;;;18.22;100.00
29733;BME280;16643;43.158;25.302;2023-06-14T04:03:14;97789.34;;;18.17;100.00
29733;BME280;16643;43.158;25.302;2023-06-14T04:05:41;97786.47;;;18.20;100.00
29733;BME280;16643;43.158;25.302;2023-06-14T04:08:14;97772.44;;;18.07;100.00
29733;BME280;16643;43.158;25.302;2023-06-14T04:10:41;97779.09;;;18.12;100.00
29733;BME280;16643;43.158;25.302;2023-06-14T04:13:07;97783.53;;;18.12;100.00
29733;BME280;16643;43.158;25.302;2023-06-14T04:15:32;97739.75;;;17.84;100.00
29733;BME280;16643;43.158;25.302;2023-06-14T04:17:58;97796.25;;;18.18;100.00
29733;BME280;16643;43.158;25.302;2023-06-14T04:20:24;97798.78;;;18.20;100.00
29733;BME280;16643;43.158;25.302;2023-06-14T04:22:51;97764.34;;;18.10;100.00
29733;BME280;16643;43.158;25.302;2023-06-14T04:25:18;97719.78;;;17.82;100.00
29733;BME280;16643;43.158;25.302;2023-06-14T04:27:44;97747.69;;;17.97;100.00
29733;BME280;16643;43.158;25.302;2023-06-14T04:30:10;97775.34;;;18.17;100.00
29733;BME280;16643;43.158;25.302;2023-06-14T04:32:36;97797.03;;;18.33;100.00
29733;BME280;16643;43.158;25.302;2023-06-14T04:35:08;97782.81;;;18.23;100.00
29733;BME280;16643;43.158;25.302;2023-06-14T04:37:34;97789.34;;;18.30;100.00
29733;BME280;16643;43.158;25.302;2023-06-14T04:40:00;97786.47;;;18.20;100.00
29733;BME280;16643;43.158;25.302;2023-06-14T04:42:26;97820.34;;;18.39;100.00
29733;BME280;16643;43.158;25.302;2023-06-14T04:44:56;97798.09;;;18.30;100.00
29733;BME280;16643;43.158;25.302;2023-06-14T04:47:22;97820.75;;;18.45;100.00
29733;BME280;16643;43.158;25.302;2023-06-14T04:49:50;97825.09;;;18.46;100.00
29733;BME280;16643;43.158;25.302;2023-06-14T04:52:19;97833.38;;;18.40;100.00
29733;BME280;16643;43.158;25.302;2023-06-14T04:54:46;97815.31;;;18.22;100.00
29733;BME280;16643;43.158;25.302;2023-06-14T04:57:12;97803.97;;;18.21;100.00
29733;BME280;16643;43.158;25.302;2023-06-14T04:59:43;97774.78;;;18.11;100.00
29733;BME280;16643;43.158;25.302;2023-06-14T05:02:10;97756.97;;;18.02;100.00
29733;BME280;16643;43.158;25.302;2023-06-14T05:04:37;97777.97;;;18.17;100.00
29733;BME280;16643;43.158;25.302;2023-06-14T05:07:07;97850.69;;;18.57;100.00
29733;BME280;16643;43.158;25.302;2023-06-14T05:09:35;97850.38;;;18.49;100.00
29733;BME280;16643;43.158;25.302;2023-06-14T05:12:01;97841.19;;;18.55;100.00
29733;BME280;16643;43.158;25.302;2023-06-14T05:14:26;97765.00;;;18.13;100.00
29733;BME280;16643;43.158;25.302;2023-06-14T05:16:52;97831.63;;;18.54;100.00
29733;BME280;16643;43.158;25.302;2023-06-14T05:19:19;97811.28;;;18.43;100.00
29733;BME280;16643;43.158;25.302;2023-06-14T05:21:46;97841.03;;;18.58;100.00
29733;BME280;16643;43.158;25.302;2023-06-14T05:24:13;97769.56;;;18.24;100.00
29733;BME280;16643;43.158;25.302;2023-06-14T05:26:39;97840.53;;;18.78;100.00
29733;BME280;16643;43.158;25.302;2023-06-14T05:29:05;97852.13;;;18.88;100.00
29733;BME280;16643;43.158;25.302;2023-06-14T05:31:30;97841.38;;;18.78;100.00
29733;BME280;16643;43.158;25.302;2023-06-14T05:33:56;97772.22;;;18.37;100.00
29733;BME280;16643;43.158;25.302;2023-06-14T05:36:22;97850.56;;;18.73;100.00
29733;BME280;16643;43.158;25.302;2023-06-14T05:38:47;97848.13;;;18.70;100.00
29733;BME280;16643;43.158;25.302;2023-06-14T05:41:13;97812.56;;;18.50;100.00
29733;BME280;16643;43.158;25.302;2023-06-14T05:43:38;97818.13;;;18.45;100.00
29733;BME280;16643;43.158;25.302;2023-06-14T05:46:04;97800.31;;;18.36;100.00
29733;BME280;16643;43.158;25.302;2023-06-14T05:48:30;97809.91;;;18.37;100.00
29733;BME280;16643;43.158;25.302;2023-06-14T05:50:56;97807.69;;;18.44;100.00
29733;BME280;16643;43.158;25.302;2023-06-14T05:53:21;97838.63;;;18.67;100.00
29733;BME280;16643;43.158;25.302;2023-06-14T05:55:47;97837.88;;;18.65;100.00
29733;BME280;16643;43.158;25.302;2023-06-14T05:58:13;97872.81;;;18.94;100.00
29733;BME280;16643;43.158;25.302;2023-06-14T06:00:39;97842.13;;;18.80;100.00
29733;BME280;16643;43.158;25.302;2023-06-14T06:03:05;97861.00;;;19.00;100.00
29733;BME280;16643;43.158;25.302;2023-06-14T06:05:33;97801.47;;;18.72;100.00
29733;BME280;16643;43.158;25.302;2023-06-14T06:07:59;97823.59;;;18.82;100.00
29733;BME280;16643;43.158;25.302;2023-06-14T06:10:25;97893.56;;;19.24;100.00
29733;BME280;16643;43.158;25.302;2023-06-14T06:12:51;97846.22;;;18.97;100.00
29733;BME280;16643;43.158;25.302;2023-06-14T06:15:17;97880.72;;;19.32;100.00
29733;BME280;16643;43.158;25.302;2023-06-14T06:17:44;97821.25;;;18.90;100.00
29733;BME280;16643;43.158;25.302;2023-06-14T06:20:10;97826.00;;;18.98;100.00
29733;BME280;16643;43.158;25.302;2023-06-14T06:22:37;97868.38;;;19.20;100.00
29733;BME280;16643;43.158;25.302;2023-06-14T06:25:03;97853.31;;;19.09;100.00
29733;BME280;16643;43.158;25.302;2023-06-14T06:27:29;97880.94;;;19.29;100.00
29733;BME280;16643;43.158;25.302;2023-06-14T06:29:54;97897.25;;;19.47;100.00
29733;BME280;16643;43.158;25.302;2023-06-14T06:32:20;97878.31;;;19.29;100.00
29733;BME280;16643;43.158;25.302;2023-06-14T06:34:46;97884.72;;;19.38;100.00
29733;BME280;16643;43.158;25.302;2023-06-14T06:37:12;97894.22;;;19.53;100.00
29733;BME280;16643;43.158;25.302;2023-06-14T06:39:38;97859.34;;;19.49;100.00
29733;BME280;16643;43.158;25.302;2023-06-14T06:42:04;97889.28;;;19.61;100.00
29733;BME280;16643;43.158;25.302;2023-06-14T06:44:30;97888.94;;;19.28;100.00
29733;BME280;16643;43.158;25.302;2023-06-14T06:46:57;97856.78;;;19.22;100.00
29733;BME280;16643;43.158;25.302;2023-06-14T06:49:23;97889.19;;;19.50;100.00
29733;BME280;16643;43.158;25.302;2023-06-14T06:54:27;97910.44;;;19.34;100.00
29733;BME280;16643;43.158;25.302;2023-06-14T06:56:53;97895.47;;;19.09;100.00
29733;BME280;16643;43.158;25.302;2023-06-14T06:59:19;97904.84;;;19.13;100.00
29733;BME280;16643;43.158;25.302;2023-06-14T07:01:45;97880.94;;;19.16;100.00
29733;BME280;16643;43.158;25.302;2023-06-14T07:04:10;73573.47;;;-142.82;100.00
29733;BME280;16643;43.158;25.302;2023-06-14T07:06:36;97875.03;;;19.38;100.00
29733;BME280;16643;43.158;25.302;2023-06-14T07:09:02;97884.19;;;19.45;100.00
29733;BME280;16643;43.158;25.302;2023-06-14T07:11:30;97881.75;;;19.42;100.00
29733;BME280;16643;43.158;25.302;2023-06-14T07:13:55;97869.44;;;18.92;100.00
29733;BME280;16643;43.158;25.302;2023-06-14T07:16:21;97894.53;;;19.10;100.00
29733;BME280;16643;43.158;25.302;2023-06-14T07:18:47;97860.06;;;19.13;100.00
29733;BME280;16643;43.158;25.302;2023-06-14T07:21:14;97865.84;;;19.31;100.00
29733;BME280;16643;43.158;25.302;2023-06-14T07:23:39;97903.41;;;19.60;100.00
29733;BME280;16643;43.158;25.302;2023-06-14T07:26:05;97886.22;;;19.54;100.00
29733;BME280;16643;43.158;25.302;2023-06-14T07:28:31;97886.22;;;-142.82;100.00
29733;BME280;16643;43.158;25.302;2023-06-14T07:30:57;97881.25;;;19.63;100.00
29733;BME280;16643;43.158;25.302;2023-06-14T07:33:22;97875.34;;;19.59;100.00
29733;BME280;16643;43.158;25.302;2023-06-14T07:35:48;97912.25;;;19.84;100.00
29733;BME280;16643;43.158;25.302;2023-06-14T07:38:14;97889.28;;;19.48;100.00
29733;BME280;16643;43.158;25.302;2023-06-14T07:40:42;97884.09;;;19.60;100.00
29733;BME280;16643;43.158;25.302;2023-06-14T07:43:07;97880.19;;;19.65;100.00
29733;BME280;16643;43.158;25.302;2023-06-14T07:45:33;97935.88;;;19.86;100.00
29733;BME280;16643;43.158;25.302;2023-06-14T07:47:58;97901.09;;;19.55;100.00
29733;BME280;16643;43.158;25.302;2023-06-14T07:50:24;97901.09;;;-142.82;100.00
29733;BME280;16643;43.158;25.302;2023-06-14T07:52:50;97927.44;;;19.68;100.00
29733;BME280;16643;43.158;25.302;2023-06-14T07:55:16;97881.56;;;19.58;100.00
29733;BME280;16643;43.158;25.302;2023-06-14T07:57:41;97881.38;;;19.61;100.00
29733;BME280;16643;43.158;25.302;2023-06-14T08:00:08;97857.81;;;19.33;100.00
29733;BME280;16643;43.158;25.302;2023-06-14T08:02:36;97905.50;;;19.55;100.00
29733;BME280;16643;43.158;25.302;2023-06-14T08:05:02;97874.72;;;19.17;100.00
29733;BME280;16643;43.158;25.302;2023-06-14T08:07:27;97918.28;;;19.48;100.00
29733;BME280;16643;43.158;25.302;2023-06-14T08:09:53;97876.38;;;19.44;100.00
29733;BME280;16643;43.158;25.302;2023-06-14T08:12:19;97914.78;;;19.73;100.00
29733;BME280;16643;43.158;25.302;2023-06-14T08:14:44;97907.28;;;19.80;100.00
29733;BME280;16643;43.158;25.302;2023-06-14T08:17:10;97930.34;;;20.02;100.00
29733;BME280;16643;43.158;25.302;2023-06-14T08:19:36;97914.03;;;19.84;100.00
29733;BME280;16643;43.158;25.302;2023-06-14T08:22:02;97866.50;;;19.60;100.00
29733;BME280;16643;43.158;25.302;2023-06-14T08:24:29;97899.03;;;19.97;100.00
29733;BME280;16643;43.158;25.302;2023-06-14T08:26:54;97910.66;;;20.18;100.00
29733;BME280;16643;43.158;25.302;2023-06-14T08:29:22;97937.78;;;20.57;100.00
29733;BME280;16643;43.158;25.302;2023-06-14T08:31:48;97940.25;;;20.71;100.00
29733;BME280;16643;43.158;25.302;2023-06-14T08:34:13;97932.00;;;20.76;100.00
29733;BME280;16643;43.158;25.302;2023-06-14T08:36:39;97923.03;;;20.89;100.00
29733;BME280;16643;43.158;25.302;2023-06-14T08:39:05;97931.84;;;21.01;100.00
29733;BME280;16643;43.158;25.302;2023-06-14T08:41:31;97903.41;;;20.81;100.00
29733;BME280;16643;43.158;25.302;2023-06-14T08:43:58;97913.81;;;20.95;100.00
29733;BME280;16643;43.158;25.302;2023-06-14T08:46:25;97922.59;;;21.30;100.00
29733;BME280;16643;43.158;25.302;2023-06-14T08:48:55;97926.44;;;21.49;100.00
29733;BME280;16643;43.158;25.302;2023-06-14T08:51:26;97936.56;;;21.77;100.00
29733;BME280;16643;43.158;25.302;2023-06-14T08:54:00;97938.28;;;22.12;98.22
29733;BME280;16643;43.158;25.302;2023-06-14T08:56:28;97939.91;;;22.35;96.59
29733;BME280;16643;43.158;25.302;2023-06-14T08:58:58;97946.91;;;22.25;95.69
29733;BME280;16643;43.158;25.302;2023-06-14T09:01:26;97944.84;;;22.28;97.19
29733;BME280;16643;43.158;25.302;2023-06-14T09:03:52;97948.34;;;22.29;97.73
29733;BME280;16643;43.158;25.302;2023-06-14T09:06:21;97943.47;;;22.56;94.83
29733;BME280;16643;43.158;25.302;2023-06-14T09:08:58;97950.78;;;22.64;94.02
29733;BME280;16643;43.158;25.302;2023-06-14T09:11:24;97915.69;;;22.39;93.26
29733;BME280;16643;43.158;25.302;2023-06-14T09:13:52;97946.94;;;22.79;91.95
29733;BME280;16643;43.158;25.302;2023-06-14T09:16:17;97945.88;;;22.91;90.76
29733;BME280;16643;43.158;25.302;2023-06-14T09:18:45;97938.28;;;22.98;91.07
29733;BME280;16643;43.158;25.302;2023-06-14T09:21:14;97948.72;;;23.10;90.75
29733;BME280;16643;43.158;25.302;2023-06-14T09:23:41;97929.56;;;23.07;90.66
29733;BME280;16643;43.158;25.302;2023-06-14T09:26:11;97946.06;;;23.31;90.09
29733;BME280;16643;43.158;25.302;2023-06-14T09:28:45;97925.56;;;23.12;86.57
29733;BME280;16643;43.158;25.302;2023-06-14T09:31:18;97948.59;;;23.33;86.79
29733;BME280;16643;43.158;25.302;2023-06-14T09:33:52;97932.78;;;23.31;85.85
29733;BME280;16643;43.158;25.302;2023-06-14T09:36:25;97937.00;;;23.55;83.22
29733;BME280;16643;43.158;25.302;2023-06-14T09:38:55;97949.13;;;23.68;85.40
29733;BME280;16643;43.158;25.302;2023-06-14T09:41:33;97914.97;;;23.64;86.26
29733;BME280;16643;43.158;25.302;2023-06-14T09:44:00;97941.97;;;23.99;80.97
29733;BME280;16643;43.158;25.302;2023-06-14T09:46:27;97938.53;;;24.18;81.74
29733;BME280;16643;43.158;25.302;2023-06-14T09:48:55;97939.50;;;24.17;82.61
29733;BME280;16643;43.158;25.302;2023-06-14T09:51:22;97918.34;;;24.06;86.53
29733;BME280;16643;43.158;25.302;2023-06-14T09:53:49;97893.97;;;23.81;86.93
29733;BME280;16643;43.158;25.302;2023-06-14T09:56:37;97916.13;;;24.01;89.14
29733;BME280;16643;43.158;25.302;2023-06-14T09:59:06;97915.72;;;24.15;88.62
29733;BME280;16643;43.158;25.302;2023-06-14T10:01:38;97936.34;;;24.23;87.10
29733;BME280;16643;43.158;25.302;2023-06-14T10:04:06;97923.13;;;24.02;86.28
29733;BME280;16643;43.158;25.302;2023-06-14T10:06:36;97879.34;;;24.06;87.21
29733;BME280;16643;43.158;25.302;2023-06-14T10:09:04;97934.31;;;24.75;85.92
29733;BME280;16643;43.158;25.302;2023-06-14T10:11:31;97931.28;;;25.08;83.04
29733;BME280;16643;43.158;25.302;2023-06-14T10:13:58;97927.75;;;25.17;76.89
29733;BME280;16643;43.158;25.302;2023-06-14T10:16:29;97940.31;;;25.44;77.41
29733;BME280;16643;43.158;25.302;2023-06-14T10:19:29;97924.47;;;25.52;78.95
29733;BME280;16643;43.158;25.302;2023-06-14T10:22:29;97931.06;;;25.58;79.34
29733;BME280;16643;43.158;25.302;2023-06-14T10:24:56;97899.78;;;25.60;77.97
29733;BME280;16643;43.158;25.302;2023-06-14T10:27:21;97915.16;;;25.76;74.90
29733;BME280;16643;43.158;25.302;2023-06-14T10:32:24;97924.56;;;25.80;72.80
29733;BME280;16643;43.158;25.302;2023-06-14T10:35:00;97916.75;;;26.06;77.03
29733;BME280;16643;43.158;25.302;2023-06-14T10:37:27;97925.66;;;26.42;73.50
29733;BME280;16643;43.158;25.302;2023-06-14T10:39:53;97902.59;;;26.50;72.72
29733;BME280;16643;43.158;25.302;2023-06-14T10:42:31;97899.31;;;26.56;73.06
29733;BME280;16643;43.158;25.302;2023-06-14T10:44:58;97903.84;;;26.73;73.21
29733;BME280;16643;43.158;25.302;2023-06-14T10:47:34;97921.22;;;26.60;72.64
29733;BME280;16643;43.158;25.302;2023-06-14T10:50:08;97914.56;;;26.64;72.39
29733;BME280;16643;43.158;25.302;2023-06-14T10:52:37;97904.81;;;26.55;71.93
29733;BME280;16643;43.158;25.302;2023-06-14T10:55:14;97916.47;;;26.54;72.26
29733;BME280;16643;43.158;25.302;2023-06-14T10:57:51;97894.97;;;26.37;72.38
29733;BME280;16643;43.158;25.302;2023-06-14T11:00:25;97920.81;;;26.55;73.05
29733;BME280;16643;43.158;25.302;2023-06-14T11:11:00;97900.16;;;26.12;72.30
29733;BME280;16643;43.158;25.302;2023-06-14T11:13:31;97898.78;;;26.53;74.09
29733;BME280;16643;43.158;25.302;2023-06-14T11:15:56;97852.53;;;26.44;72.18
29733;BME280;16643;43.158;25.302;2023-06-14T11:18:23;97899.41;;;26.82;70.13
29733;BME280;16643;43.158;25.302;2023-06-14T11:20:55;97903.50;;;26.76;70.26
29733;BME280;16643;43.158;25.302;2023-06-14T11:23:21;97848.38;;;25.87;71.14
29733;BME280;16643;43.158;25.302;2023-06-14T11:25:52;97896.00;;;26.27;73.13
29733;BME280;16643;43.158;25.302;2023-06-14T11:28:18;97890.09;;;26.33;70.67
29733;BME280;16643;43.158;25.302;2023-06-14T11:30:45;97908.69;;;26.43;69.17
29733;BME280;16643;43.158;25.302;2023-06-14T11:33:17;97854.31;;;25.81;71.11
29733;BME280;16643;43.158;25.302;2023-06-14T11:35:43;97853.81;;;25.58;74.36
29733;BME280;16643;43.158;25.302;2023-06-14T11:38:10;97888.13;;;25.24;73.98
29733;BME280;16643;43.158;25.302;2023-06-14T11:40:37;97882.97;;;25.03;75.24
29733;BME280;16643;43.158;25.302;2023-06-14T11:43:03;97875.69;;;24.95;77.24
29733;BME280;16643;43.158;25.302;2023-06-14T11:45:30;97874.69;;;25.16;75.68
29733;BME280;16643;43.158;25.302;2023-06-14T11:47:57;97848.25;;;25.05;73.67
29733;BME280;16643;43.158;25.302;2023-06-14T11:50:22;97874.59;;;25.45;72.77
29733;BME280;16643;43.158;25.302;2023-06-14T11:52:58;97877.91;;;25.66;73.35
29733;BME280;16643;43.158;25.302;2023-06-14T11:55:38;97850.97;;;25.32;74.95
29733;BME280;16643;43.158;25.302;2023-06-14T11:58:04;97856.53;;;25.48;76.27
29733;BME280;16643;43.158;25.302;2023-06-14T12:00:30;97819.63;;;25.53;75.03
29733;BME280;16643;43.158;25.302;2023-06-14T12:02:57;97797.63;;;25.51;74.89
29733;BME280;16643;43.158;25.302;2023-06-14T12:05:23;97841.38;;;25.86;72.27
29733;BME280;16643;43.158;25.302;2023-06-14T12:07:50;97864.09;;;26.08;71.32
29733;BME280;16643;43.158;25.302;2023-06-14T12:10:19;97849.91;;;26.17;71.54
29733;BME280;16643;43.158;25.302;2023-06-14T12:12:45;97854.81;;;26.39;69.66
29733;BME280;16643;43.158;25.302;2023-06-14T12:15:11;97868.22;;;26.47;70.71
29733;BME280;16643;43.158;25.302;2023-06-14T12:17:37;97863.28;;;26.52;71.71
29733;BME280;16643;43.158;25.302;2023-06-14T12:20:12;97869.16;;;26.56;69.89
29733;BME280;16643;43.158;25.302;2023-06-14T12:22:53;97851.78;;;26.52;68.56
29733;BME280;16643;43.158;25.302;2023-06-14T12:28:05;97858.03;;;26.60;71.38
29733;BME280;16643;43.158;25.302;2023-06-14T12:30:32;97855.34;;;26.78;69.57
29733;BME280;16643;43.158;25.302;2023-06-14T12:32:58;97843.31;;;26.74;68.78
29733;BME280;16643;43.158;25.302;2023-06-14T12:35:23;97824.31;;;26.77;67.86
29733;BME280;16643;43.158;25.302;2023-06-14T12:37:49;97820.38;;;26.63;68.62
29733;BME280;16643;43.158;25.302;2023-06-14T12:40:14;97803.84;;;26.60;66.03
29733;BME280;16643;43.158;25.302;2023-06-14T12:42:41;97839.81;;;26.73;69.33
29733;BME280;16643;43.158;25.302;2023-06-14T12:45:07;97844.53;;;26.44;69.68
29733;BME280;16643;43.158;25.302;2023-06-14T12:47:33;97795.94;;;25.87;71.97
29733;BME280;16643;43.158;25.302;2023-06-14T12:49:58;97812.66;;;26.07;69.04
29733;BME280;16643;43.158;25.302;2023-06-14T12:52:24;97812.06;;;26.31;67.32
29733;BME280;16643;43.158;25.302;2023-06-14T12:54:50;97755.00;;;26.06;70.29
29733;BME280;16643;43.158;25.302;2023-06-14T12:57:15;97829.16;;;26.38;65.98
29733;BME280;16643;43.158;25.302;2023-06-14T12:59:41;97806.84;;;26.39;71.03
29733;BME280;16643;43.158;25.302;2023-06-14T13:02:19;97778.59;;;26.19;70.23
29733;BME280;16643;43.158;25.302;2023-06-14T13:04:49;97816.94;;;26.53;70.08